createdAt,value
2017-09-21T00:02:21.111Z,99.90
2017-09-21T00:04:47.138Z,99.90
2017-09-21T00:07:14.941Z,99.90
2017-09-21T00:09:44.710Z,99.90
2017-09-21T00:12:10.750Z,99.90
2017-09-21T00:14:36.766Z,99.90
2017-09-21T00:17:08.013Z,99.90
2017-09-21T00:19:34.054Z,99.90
2017-09-21T00:22:01.008Z,99.90
2017-09-21T00:24:38.417Z,99.90
2017-09-21T00:27:11.838Z,99.90
2017-09-21T00:29:42.298Z,99.90
2017-09-21T00:32:09.293Z,99.90
2017-09-21T00:34:35.999Z,99.90
2017-09-21T00:37:04.006Z,99.90
2017-09-21T00:39:36.262Z,99.90
2017-09-21T00:42:02.194Z,99.90
2017-09-21T00:44:33.322Z,99.90
2017-09-21T00:47:00.096Z,99.90
2017-09-21T00:49:26.853Z,99.90
2017-09-21T00:51:57.570Z,99.90
2017-09-21T00:54:25.141Z,99.90
2017-09-21T00:56:52.157Z,99.90
2017-09-21T00:59:25.748Z,99.90
2017-09-21T01:01:51.718Z,99.90
2017-09-21T01:04:21.866Z,99.90
2017-09-21T01:06:48.914Z,99.90
2017-09-21T01:09:16.984Z,99.90
2017-09-21T01:11:43.665Z,99.90
2017-09-21T01:14:16.314Z,99.90
2017-09-21T01:16:42.351Z,99.90
2017-09-21T01:19:08.378Z,99.90
2017-09-21T01:21:34.382Z,99.90
2017-09-21T01:24:02.142Z,99.90
2017-09-21T01:26:29.178Z,99.90
2017-09-21T01:28:55.185Z,99.90
2017-09-21T01:31:21.169Z,99.90
2017-09-21T01:33:54.699Z,99.90
2017-09-21T01:36:21.731Z,99.90
2017-09-21T01:38:50.518Z,99.90
2017-09-21T01:41:18.303Z,99.90
2017-09-21T01:43:44.382Z,99.90
2017-09-21T01:46:12.389Z,99.90
2017-09-21T01:48:40.362Z,99.90
2017-09-21T01:51:07.105Z,99.90
2017-09-21T01:53:37.210Z,99.90
2017-09-21T01:56:03.270Z,99.90
2017-09-21T01:58:32.068Z,99.90
2017-09-21T02:00:58.775Z,99.90
2017-09-21T02:03:24.826Z,99.90
2017-09-21T02:05:51.562Z,99.90
2017-09-21T02:08:23.946Z,99.90
2017-09-21T02:10:57.350Z,99.90
2017-09-21T02:13:24.073Z,99.90
2017-09-21T02:15:50.105Z,99.90
2017-09-21T02:18:17.062Z,99.90
2017-09-21T02:20:48.246Z,99.90
2017-09-21T02:23:21.534Z,99.90
2017-09-21T02:25:47.469Z,99.90
2017-09-21T02:28:14.493Z,99.90
2017-09-21T02:30:41.226Z,99.90
2017-09-21T02:33:10.867Z,99.90
2017-09-21T02:35:37.554Z,99.90
2017-09-21T02:38:03.552Z,99.90
2017-09-21T02:40:34.033Z,99.90
2017-09-21T02:43:00.082Z,99.90
2017-09-21T02:45:26.818Z,99.90
2017-09-21T02:47:52.853Z,99.90
2017-09-21T02:50:18.885Z,99.90
2017-09-21T02:52:53.209Z,99.90
2017-09-21T02:55:19.904Z,99.90
2017-09-21T02:57:45.906Z,99.90
2017-09-21T03:00:11.889Z,99.90
2017-09-21T03:02:37.926Z,99.90
2017-09-21T03:05:03.953Z,99.90
2017-09-21T03:07:31.958Z,99.90
2017-09-21T03:10:11.099Z,99.90
2017-09-21T03:12:43.776Z,99.90
2017-09-21T03:15:09.714Z,99.90
2017-09-21T03:17:35.707Z,99.90
2017-09-21T03:20:02.652Z,99.90
2017-09-21T03:22:28.566Z,99.90
2017-09-21T03:24:54.499Z,99.90
2017-09-21T03:27:24.646Z,99.90
2017-09-21T03:29:55.160Z,99.90
2017-09-21T03:32:22.107Z,99.90
2017-09-21T03:34:50.073Z,99.90
2017-09-21T03:37:16.143Z,99.90
2017-09-21T03:39:42.155Z,99.90
2017-09-21T03:42:08.846Z,99.90
2017-09-21T03:44:35.918Z,99.90
2017-09-21T03:47:01.885Z,99.90
2017-09-21T03:49:28.602Z,99.90
2017-09-21T03:51:54.702Z,99.90
2017-09-21T03:54:34.388Z,99.90
2017-09-21T03:57:01.355Z,99.90
2017-09-21T03:59:29.124Z,99.90
2017-09-21T04:01:56.908Z,99.90
2017-09-21T04:04:26.472Z,99.90
2017-09-21T04:06:52.506Z,99.90
2017-09-21T04:09:22.217Z,99.90
2017-09-21T04:11:48.347Z,99.90
2017-09-21T04:14:14.390Z,99.90
2017-09-21T04:16:44.522Z,99.90
2017-09-21T04:19:16.138Z,99.90
2017-09-21T04:21:49.614Z,99.90
2017-09-21T04:24:15.608Z,99.90
2017-09-21T04:26:42.389Z,99.90
2017-09-21T04:29:15.461Z,99.90
2017-09-21T04:31:45.159Z,99.90
2017-09-21T04:34:22.658Z,99.90
2017-09-21T04:36:54.528Z,99.90
2017-09-21T04:39:20.524Z,99.90
2017-09-21T04:41:46.455Z,99.90
2017-09-21T04:44:13.431Z,99.90
2017-09-21T04:46:42.197Z,99.90
2017-09-21T04:49:08.216Z,99.90
2017-09-21T04:51:38.549Z,99.90
2017-09-21T04:54:04.574Z,99.90
2017-09-21T04:56:30.606Z,99.90
2017-09-21T04:58:56.656Z,99.90
2017-09-21T05:01:28.812Z,99.90
2017-09-21T05:03:54.854Z,99.90
2017-09-21T05:06:39.017Z,99.90
2017-09-21T05:09:15.674Z,99.90
2017-09-21T05:11:43.462Z,99.90
2017-09-21T05:14:11.498Z,99.90
2017-09-21T05:16:37.593Z,99.90
2017-09-21T05:19:03.521Z,99.90
2017-09-21T05:21:36.154Z,99.90
2017-09-21T05:24:02.913Z,99.90
2017-09-21T05:26:29.966Z,99.90
2017-09-21T05:28:56.014Z,99.90
2017-09-21T05:31:23.021Z,99.90
2017-09-21T05:33:51.015Z,99.90
2017-09-21T05:36:23.274Z,99.90
2017-09-21T05:38:50.254Z,99.90
2017-09-21T05:41:17.338Z,99.90
2017-09-21T05:43:44.195Z,99.90
2017-09-21T05:46:10.965Z,99.90
2017-09-21T05:48:37.745Z,99.90
2017-09-21T05:51:06.513Z,99.90
2017-09-21T05:53:41.152Z,99.90
2017-09-21T05:56:09.937Z,99.90
2017-09-21T05:58:36.653Z,99.90
2017-09-21T06:01:02.702Z,99.90
2017-09-21T06:03:29.438Z,99.90
2017-09-21T06:05:55.469Z,99.90
2017-09-21T06:08:22.418Z,99.90
2017-09-21T06:10:48.466Z,99.90
2017-09-21T06:13:15.199Z,99.90
2017-09-21T06:15:41.238Z,99.90
2017-09-21T06:18:25.210Z,99.90
2017-09-21T06:20:52.218Z,99.90
2017-09-21T06:23:23.049Z,99.90
2017-09-21T06:25:48.982Z,99.90
2017-09-21T06:28:15.030Z,99.90
2017-09-21T06:30:42.769Z,99.90
2017-09-21T06:33:09.729Z,99.90
2017-09-21T06:35:39.322Z,99.90
2017-09-21T06:38:06.285Z,99.90
2017-09-21T06:40:32.311Z,99.90
2017-09-21T06:42:58.407Z,99.90
2017-09-21T06:45:24.424Z,99.90
2017-09-21T06:47:55.243Z,99.90
2017-09-21T06:50:25.754Z,99.90
2017-09-21T06:52:51.781Z,99.90
2017-09-21T06:55:22.945Z,99.90
2017-09-21T06:57:50.718Z,99.90
2017-09-21T07:00:17.412Z,99.90
2017-09-21T07:02:44.165Z,99.90
2017-09-21T07:05:10.128Z,99.90
2017-09-21T07:07:37.040Z,99.90
2017-09-21T07:10:03.531Z,99.90
2017-09-21T07:12:33.894Z,99.90
2017-09-21T07:15:00.325Z,99.90
2017-09-21T07:17:31.373Z,99.90
2017-09-21T07:20:10.001Z,99.90
2017-09-21T07:22:43.512Z,99.90
2017-09-21T07:25:13.061Z,99.90
2017-09-21T07:27:43.253Z,99.90
2017-09-21T07:30:11.221Z,99.90
2017-09-21T07:32:44.119Z,99.90
2017-09-21T07:35:10.904Z,99.90
2017-09-21T07:37:41.234Z,99.90
2017-09-21T07:40:07.187Z,99.90
2017-09-21T07:42:37.234Z,99.90
2017-09-21T07:45:04.206Z,99.90
2017-09-21T07:47:30.235Z,99.90
2017-09-21T07:49:56.157Z,99.90
2017-09-21T07:52:22.142Z,99.90
2017-09-21T07:54:48.092Z,99.90
2017-09-21T07:57:14.014Z,99.90
2017-09-21T07:59:39.946Z,99.90
2017-09-21T08:02:12.305Z,99.90
2017-09-21T08:04:46.049Z,99.90
2017-09-21T08:07:15.614Z,99.90
2017-09-21T08:09:41.622Z,99.90
2017-09-21T08:12:07.541Z,99.90
2017-09-21T08:14:38.135Z,99.90
2017-09-21T08:17:04.172Z,99.90
2017-09-21T08:19:30.213Z,99.90
2017-09-21T08:21:56.874Z,99.90
2017-09-21T08:24:23.574Z,99.90
2017-09-21T08:26:49.519Z,99.90
2017-09-21T08:29:15.553Z,99.90
2017-09-21T08:31:44.860Z,99.90
2017-09-21T08:34:12.933Z,99.90
2017-09-21T08:36:38.950Z,99.90
2017-09-21T08:39:04.881Z,99.90
2017-09-21T08:41:30.833Z,99.90
2017-09-21T08:43:57.506Z,99.90
2017-09-21T08:46:29.878Z,99.90
2017-09-21T08:49:01.257Z,99.90
2017-09-21T08:51:29.251Z,99.90
2017-09-21T08:53:55.282Z,99.90
2017-09-21T08:56:21.460Z,99.90
2017-09-21T08:58:48.514Z,99.90
2017-09-21T09:01:31.953Z,99.90
2017-09-21T09:04:16.707Z,99.90
2017-09-21T09:06:43.734Z,99.90
2017-09-21T09:09:13.843Z,99.90
2017-09-21T09:11:44.162Z,99.90
2017-09-21T09:14:11.131Z,99.90
2017-09-21T09:16:37.804Z,99.90
2017-09-21T09:19:03.774Z,99.90
2017-09-21T09:21:29.789Z,99.90
2017-09-21T09:23:55.710Z,99.90
2017-09-21T09:26:21.642Z,99.90
2017-09-21T09:28:47.576Z,99.90
2017-09-21T09:31:13.534Z,99.90
2017-09-21T09:33:40.276Z,99.90
2017-09-21T09:36:06.945Z,99.90
2017-09-21T09:38:32.934Z,99.90
2017-09-21T09:40:58.861Z,99.90
2017-09-21T09:43:27.878Z,99.90
2017-09-21T09:45:58.195Z,99.90
2017-09-21T09:48:24.203Z,99.90
2017-09-21T09:50:50.095Z,99.90
2017-09-21T09:53:17.029Z,99.90
2017-09-21T09:55:42.947Z,99.90
2017-09-21T09:58:09.634Z,99.90
2017-09-21T10:00:35.545Z,99.90
2017-09-21T10:03:01.539Z,99.90
2017-09-21T10:05:28.188Z,99.90
2017-09-21T10:07:54.873Z,99.90
2017-09-21T10:10:20.786Z,99.90
2017-09-21T10:12:46.702Z,99.90
2017-09-21T10:15:12.631Z,99.90
2017-09-21T10:17:38.577Z,99.90
2017-09-21T10:20:04.502Z,99.90
2017-09-21T10:22:30.474Z,99.90
2017-09-21T10:24:56.405Z,99.90
2017-09-21T10:27:22.345Z,99.90
2017-09-21T10:29:49.044Z,99.90
2017-09-21T10:32:15.733Z,99.90
2017-09-21T10:34:41.662Z,99.90
2017-09-21T10:37:10.346Z,99.90
2017-09-21T10:39:36.269Z,99.90
2017-09-21T10:42:02.204Z,99.70
2017-09-21T10:44:28.862Z,98.50
2017-09-21T10:46:55.583Z,97.10
2017-09-21T10:49:21.568Z,97.50
2017-09-21T10:51:47.545Z,95.90
2017-09-21T10:54:29.186Z,95.00
2017-09-21T10:56:57.209Z,94.70
2017-09-21T10:59:23.933Z,91.70
2017-09-21T11:01:49.858Z,91.50
2017-09-21T11:04:15.802Z,92.50
2017-09-21T11:06:41.739Z,92.60
2017-09-21T11:09:07.672Z,91.50
2017-09-21T11:11:34.344Z,91.00
2017-09-21T11:14:00.302Z,91.00
2017-09-21T11:16:26.230Z,90.40
2017-09-21T11:18:52.910Z,90.50
2017-09-21T11:21:19.570Z,90.70
2017-09-21T11:23:47.237Z,88.50
2017-09-21T11:26:13.147Z,88.30
2017-09-21T11:28:43.401Z,88.80
2017-09-21T11:31:09.326Z,88.80
2017-09-21T11:33:35.254Z,89.50
2017-09-21T11:36:01.202Z,87.80
2017-09-21T11:38:27.167Z,85.30
2017-09-21T11:40:53.862Z,84.30
2017-09-21T11:43:19.795Z,83.20
2017-09-21T11:45:45.714Z,79.90
2017-09-21T11:48:11.630Z,80.40
2017-09-21T11:50:41.970Z,78.00
2017-09-21T11:53:13.371Z,77.40
2017-09-21T11:55:41.378Z,75.10
2017-09-21T11:58:08.415Z,77.30
2017-09-21T12:00:35.109Z,76.50
2017-09-21T12:03:02.282Z,76.40
2017-09-21T12:05:32.690Z,76.00
2017-09-21T12:08:00.773Z,75.00
2017-09-21T12:10:26.805Z,73.40
2017-09-21T12:12:52.777Z,72.10
2017-09-21T12:15:23.229Z,72.10
2017-09-21T12:17:49.238Z,72.10
2017-09-21T12:20:19.037Z,69.70
2017-09-21T12:22:44.970Z,69.60
2017-09-21T12:25:10.898Z,69.20
2017-09-21T12:27:36.854Z,70.50
2017-09-21T12:30:02.781Z,69.10
2017-09-21T12:32:28.711Z,67.10
2017-09-21T12:34:54.650Z,64.30
2017-09-21T12:37:20.569Z,65.50
2017-09-21T12:39:46.500Z,65.00
2017-09-21T12:42:12.414Z,66.50
2017-09-21T12:44:39.094Z,67.20
2017-09-21T12:47:05.031Z,67.00
2017-09-21T12:49:35.499Z,63.90
2017-09-21T12:52:01.465Z,63.80
2017-09-21T12:54:28.395Z,65.60
2017-09-21T12:56:54.355Z,64.70
2017-09-21T12:59:20.283Z,64.50
2017-09-21T13:01:46.234Z,62.40
2017-09-21T13:04:12.154Z,62.20
2017-09-21T13:06:38.906Z,60.90
2017-09-21T13:09:08.315Z,60.80
2017-09-21T13:11:34.253Z,60.50
2017-09-21T13:14:00.250Z,61.60
2017-09-21T13:16:26.255Z,59.30
2017-09-21T13:18:52.251Z,59.70
2017-09-21T13:21:18.950Z,59.60
2017-09-21T13:23:44.945Z,58.80
2017-09-21T13:26:12.628Z,58.60
2017-09-21T13:28:38.554Z,58.60
2017-09-21T13:31:04.570Z,58.60
2017-09-21T13:33:30.519Z,58.90
2017-09-21T13:35:56.425Z,57.50
2017-09-21T13:38:22.438Z,58.80
2017-09-21T13:40:49.115Z,58.40
2017-09-21T13:43:15.092Z,58.40
2017-09-21T13:45:41.031Z,58.50
2017-09-21T13:48:07.749Z,58.50
2017-09-21T13:50:33.681Z,58.50
2017-09-21T13:52:59.644Z,58.90
2017-09-21T13:55:29.691Z,58.10
2017-09-21T13:57:55.617Z,58.00
2017-09-21T14:00:21.559Z,57.20
2017-09-21T14:02:48.603Z,56.90
2017-09-21T14:05:15.613Z,56.50
2017-09-21T14:07:45.449Z,56.70
2017-09-21T14:10:14.754Z,57.50
2017-09-21T14:12:44.161Z,58.10
2017-09-21T14:15:15.118Z,56.40
2017-09-21T14:17:41.114Z,57.30
2017-09-21T14:20:07.844Z,56.50
2017-09-21T14:22:35.786Z,56.50
2017-09-21T14:25:01.715Z,57.70
2017-09-21T14:27:29.638Z,58.00
2017-09-21T14:29:55.786Z,58.30
2017-09-21T14:32:21.709Z,56.70
2017-09-21T14:34:48.634Z,56.70
2017-09-21T14:37:18.580Z,54.90
2017-09-21T14:39:49.940Z,55.10
2017-09-21T14:42:16.858Z,55.20
2017-09-21T14:44:46.799Z,54.20
2017-09-21T14:47:12.782Z,54.20
2017-09-21T14:49:39.847Z,54.40
2017-09-21T14:52:09.212Z,54.50
2017-09-21T14:54:49.155Z,52.70
2017-09-21T14:57:15.257Z,53.20
2017-09-21T14:59:46.403Z,53.70
2017-09-21T15:02:19.036Z,52.50
2017-09-21T15:04:49.790Z,52.40
2017-09-21T15:07:28.245Z,53.40
2017-09-21T15:10:02.168Z,54.90
2017-09-21T15:12:32.560Z,52.60
2017-09-21T15:15:01.351Z,50.60
2017-09-21T15:17:35.298Z,51.00
2017-09-21T15:20:23.080Z,51.00
2017-09-21T15:22:54.837Z,52.60
2017-09-21T15:25:20.758Z,53.00
2017-09-21T15:27:48.783Z,52.70
2017-09-21T15:30:23.420Z,53.20
2017-09-21T15:32:52.860Z,52.20
2017-09-21T15:35:18.910Z,52.20
2017-09-21T15:37:53.239Z,50.50
2017-09-21T15:40:19.943Z,51.90
2017-09-21T15:42:45.874Z,51.80
2017-09-21T15:45:15.397Z,52.30
2017-09-21T15:47:44.898Z,53.40
2017-09-21T15:50:10.937Z,54.40
2017-09-21T15:52:36.981Z,55.20
2017-09-21T15:55:10.899Z,56.60
2017-09-21T15:57:38.661Z,56.40
2017-09-21T16:00:07.678Z,55.90
2017-09-21T16:02:33.719Z,55.90
2017-09-21T16:05:05.669Z,56.70
2017-09-21T16:07:32.682Z,57.30
2017-09-21T16:10:13.741Z,57.30
2017-09-21T16:12:41.714Z,58.20
2017-09-21T16:15:07.689Z,58.00
2017-09-21T16:17:43.372Z,58.60
2017-09-21T16:20:12.805Z,58.70
2017-09-21T16:22:50.374Z,58.60
2017-09-21T16:25:26.903Z,59.10
2017-09-21T16:27:58.237Z,59.60
2017-09-21T16:30:35.739Z,59.70
2017-09-21T16:33:04.634Z,60.50
2017-09-21T16:35:31.357Z,61.50
2017-09-21T16:37:57.302Z,61.40
2017-09-21T16:40:23.977Z,62.00
2017-09-21T16:42:49.887Z,61.90
2017-09-21T16:45:16.546Z,61.90
2017-09-21T16:47:42.483Z,61.80
2017-09-21T16:50:08.405Z,62.40
2017-09-21T16:52:34.335Z,62.60
2017-09-21T16:55:00.258Z,63.70
2017-09-21T16:57:26.175Z,65.40
2017-09-21T16:59:52.096Z,66.40
2017-09-21T17:02:18.080Z,67.30
2017-09-21T17:04:44.049Z,68.00
2017-09-21T17:07:10.700Z,70.20
2017-09-21T17:09:36.613Z,70.10
2017-09-21T17:12:03.285Z,72.10
2017-09-21T17:14:29.187Z,72.00
2017-09-21T17:16:55.865Z,72.70
2017-09-21T17:19:21.795Z,72.70
2017-09-21T17:21:47.724Z,73.30
2017-09-21T17:24:13.699Z,74.20
2017-09-21T17:26:40.374Z,75.20
2017-09-21T17:29:06.294Z,75.80
2017-09-21T17:31:32.253Z,76.50
2017-09-21T17:33:58.281Z,78.30
2017-09-21T17:36:24.225Z,80.90
2017-09-21T17:38:50.154Z,81.50
2017-09-21T17:41:17.810Z,85.70
2017-09-21T17:43:43.788Z,85.70
2017-09-21T17:46:10.459Z,87.40
2017-09-21T17:48:36.389Z,87.30
2017-09-21T17:51:02.350Z,89.40
2017-09-21T17:53:29.039Z,90.40
2017-09-21T17:55:55.736Z,90.60
2017-09-21T17:58:21.678Z,90.60
2017-09-21T18:00:47.772Z,90.50
2017-09-21T18:03:13.764Z,91.20
2017-09-21T18:05:40.430Z,91.70
2017-09-21T18:08:10.109Z,91.70
2017-09-21T18:10:36.773Z,92.60
2017-09-21T18:13:03.533Z,92.60
2017-09-21T18:15:29.458Z,92.60
2017-09-21T18:17:59.841Z,93.20
2017-09-21T18:20:25.803Z,93.70
2017-09-21T18:22:52.518Z,93.90
2017-09-21T18:25:18.599Z,94.20
2017-09-21T18:27:46.547Z,94.60
2017-09-21T18:30:13.277Z,95.10
2017-09-21T18:32:39.288Z,95.10
2017-09-21T18:35:05.233Z,95.90
2017-09-21T18:37:33.982Z,96.60
2017-09-21T18:39:59.941Z,96.40
2017-09-21T18:42:29.464Z,97.00
2017-09-21T18:44:55.527Z,96.60
2017-09-21T18:47:23.566Z,96.80
2017-09-21T18:49:50.250Z,97.70
2017-09-21T18:52:16.201Z,97.30
2017-09-21T18:54:45.322Z,97.80
2017-09-21T18:57:11.255Z,98.20
2017-09-21T18:59:37.189Z,98.70
2017-09-21T19:02:03.121Z,99.00
2017-09-21T19:04:29.818Z,99.90
2017-09-21T19:06:55.746Z,99.90
2017-09-21T19:09:21.697Z,99.90
2017-09-21T19:11:47.646Z,99.90
2017-09-21T19:14:13.582Z,99.90
2017-09-21T19:16:44.070Z,99.90
2017-09-21T19:19:10.009Z,99.90
2017-09-21T19:21:35.938Z,99.90
2017-09-21T19:24:01.854Z,99.90
2017-09-21T19:26:27.801Z,99.90
2017-09-21T19:28:59.266Z,99.90
2017-09-21T19:31:25.203Z,99.90
2017-09-21T19:33:51.885Z,99.90
2017-09-21T19:36:18.974Z,99.90
2017-09-21T19:38:44.978Z,99.90
2017-09-21T19:41:14.930Z,99.90
2017-09-21T19:43:40.871Z,99.90
2017-09-21T19:46:20.045Z,99.90
2017-09-21T19:48:46.237Z,99.90
2017-09-21T19:51:20.076Z,99.90
2017-09-21T19:53:48.174Z,99.90
2017-09-21T19:56:14.113Z,99.90
2017-09-21T19:58:40.034Z,99.90
2017-09-21T20:01:06.045Z,99.90
2017-09-21T20:03:37.542Z,99.90
2017-09-21T20:06:04.489Z,99.90
2017-09-21T20:08:30.511Z,99.90
2017-09-21T20:11:05.257Z,99.90
2017-09-21T20:13:31.218Z,99.90
2017-09-21T20:16:04.091Z,99.90
2017-09-21T20:18:30.788Z,99.90
2017-09-21T20:20:58.800Z,99.90
2017-09-21T20:23:25.480Z,99.90
2017-09-21T20:25:51.460Z,99.90
2017-09-21T20:28:19.474Z,99.90
2017-09-21T20:30:48.960Z,99.90
2017-09-21T20:33:15.686Z,99.90
2017-09-21T20:35:41.649Z,99.90
2017-09-21T20:38:09.600Z,99.90
2017-09-21T20:40:36.334Z,99.90
2017-09-21T20:43:03.285Z,99.90
2017-09-21T20:45:40.380Z,99.90
2017-09-21T20:48:07.065Z,99.90
2017-09-21T20:50:33.037Z,99.90
2017-09-21T20:53:01.002Z,99.90
2017-09-21T20:55:29.022Z,99.90
2017-09-21T20:58:00.267Z,99.90
2017-09-21T21:00:28.230Z,99.90
2017-09-21T21:02:54.981Z,99.90
2017-09-21T21:05:21.707Z,99.90
2017-09-21T21:07:48.642Z,99.90
2017-09-21T21:10:14.782Z,99.90
2017-09-21T21:12:40.833Z,99.90
2017-09-21T21:15:07.563Z,99.90
2017-09-21T21:17:33.591Z,99.90
2017-09-21T21:20:00.595Z,99.90
2017-09-21T21:22:32.226Z,99.90
2017-09-21T21:25:00.002Z,99.90
2017-09-21T21:27:27.026Z,99.90
2017-09-21T21:29:54.163Z,99.90
2017-09-21T21:32:20.198Z,99.90
2017-09-21T21:34:51.446Z,99.90
2017-09-21T21:37:17.497Z,99.90
2017-09-21T21:39:47.390Z,99.90
2017-09-21T21:42:13.527Z,99.90
2017-09-21T21:44:40.283Z,99.90
2017-09-21T21:47:10.307Z,99.90
2017-09-21T21:49:43.922Z,99.90
2017-09-21T21:52:15.365Z,99.90
2017-09-21T21:54:54.827Z,99.90
2017-09-21T21:57:21.845Z,99.90
2017-09-21T21:59:48.814Z,99.90
2017-09-21T22:02:18.051Z,99.90
2017-09-21T22:04:44.021Z,99.90
2017-09-21T22:07:10.066Z,99.90
2017-09-21T22:09:37.842Z,99.90
2017-09-21T22:12:21.705Z,99.90
2017-09-21T22:14:48.714Z,99.90
2017-09-21T22:17:18.118Z,99.90
2017-09-21T22:19:51.654Z,99.90
2017-09-21T22:22:17.577Z,99.90
2017-09-21T22:24:47.589Z,99.90
2017-09-21T22:27:18.033Z,99.90
2017-09-21T22:29:45.042Z,99.90
2017-09-21T22:32:11.061Z,99.90
2017-09-21T22:34:40.484Z,99.90
2017-09-21T22:37:06.513Z,99.90
2017-09-21T22:39:34.487Z,99.90
2017-09-21T22:42:02.482Z,99.90
2017-09-21T22:44:29.197Z,99.90
2017-09-21T22:46:57.177Z,99.90
2017-09-21T22:49:33.246Z,99.90
2017-09-21T22:51:59.981Z,99.90
2017-09-21T22:54:26.722Z,99.90
2017-09-21T22:56:52.749Z,99.90
2017-09-21T22:59:25.047Z,99.90
2017-09-21T23:01:51.792Z,99.90
2017-09-21T23:04:18.448Z,99.90
2017-09-21T23:06:45.181Z,99.90
2017-09-21T23:09:11.938Z,99.90
2017-09-21T23:11:38.653Z,99.90
2017-09-21T23:14:08.374Z,99.90
2017-09-21T23:16:40.745Z,99.90
2017-09-21T23:19:07.706Z,99.90
2017-09-21T23:21:42.025Z,99.90
2017-09-21T23:24:18.694Z,99.90
2017-09-21T23:26:46.454Z,99.90
2017-09-21T23:29:14.415Z,99.90
2017-09-21T23:31:40.336Z,99.90
2017-09-21T23:34:06.258Z,99.90
2017-09-21T23:36:33.229Z,99.90
2017-09-21T23:38:59.250Z,99.90
2017-09-21T23:41:25.273Z,99.90
2017-09-21T23:43:51.249Z,99.90
2017-09-21T23:46:17.953Z,99.90
2017-09-21T23:48:44.910Z,99.90
2017-09-21T23:51:10.849Z,99.90
2017-09-21T23:53:38.597Z,99.90
2017-09-21T23:56:09.950Z,99.90
2017-09-21T23:58:35.877Z,99.90
